Time;durP1;ratioP1;P1;durP2;ratioP2;P2;SDS_P1;SDS_P2;PMS_P1;PMS_P2;Temp;Humidity;BMP_temperature;BMP_pressure;BME280_temperature;BME280_humidity;BME280_pressure;Samples;Min_cycle;Max_cycle;Signal;HPM_P1;HPM_P2
2021/08/18 00:01:10;;;;;;;1.45;0.88;;;;;;;16.69;53.15;92565.72;4997241;28;20057;-93
2021/08/18 00:04:06;;;;;;;1.77;0.95;;;;;;;16.77;51.72;92566.75;4995415;28;20491;-93
2021/08/18 00:07:19;;;;;;;0.93;0.65;;;;;;;16.78;53.96;92560.38;4992045;28;20501;-94
2021/08/18 00:09:52;;;;;;;2.05;0.82;;;;;;;16.82;54.92;92577.94;4993484;28;20050;-94
2021/08/18 00:12:40;;;;;;;;;;;;;;;;;;;;;
2021/08/18 00:15:20;;;;;;;1.13;1.03;;;;;;;16.56;55.83;92556.16;5000136;28;20050;-95
2021/08/18 00:18:04;;;;;;;;;;;;;;;;;;;;;
2021/08/18 00:20:55;;;;;;;0.65;0.35;;;;;;;16.36;57.09;92561.09;4998584;28;20399;-94
2021/08/18 00:23:45;;;;;;;1.70;1.15;;;;;;;16.32;56.03;92560.19;5006423;28;20050;-92
2021/08/18 00:26:36;;;;;;;1.50;1.00;;;;;;;16.33;55.63;92572.31;4986699;28;20072;-95
2021/08/18 00:31:59;;;;;;;0.35;0.35;;;;;;;16.19;56.00;92564.63;5014080;28;20505;-93
2021/08/18 00:34:42;;;;;;;;;;;;;;;;;;;;;
2021/08/18 00:37:33;;;;;;;0.38;0.35;;;;;;;16.16;55.38;92575.03;5000054;28;20501;-93
2021/08/18 00:40:07;;;;;;;2.05;0.90;;;;;;;16.12;54.96;92576.75;4997106;28;20073;-93
2021/08/18 00:42:52;;;;;;;2.70;1.23;;;;;;;16.02;54.64;92570.72;4991254;28;20580;-93
2021/08/18 00:45:28;;;;;;;2.13;1.25;;;;;;;16.00;54.84;92565.00;5002974;28;20053;-93
2021/08/18 00:48:16;;;;;;;1.50;1.02;;;;;;;15.96;54.99;92564.09;4985739;28;20490;-93
2021/08/18 00:50:55;;;;;;;0.73;0.70;;;;;;;15.96;55.19;92566.75;4993189;28;20053;-94
2021/08/18 00:53:30;;;;;;;2.22;1.20;;;;;;;15.90;55.86;92560.09;5006232;28;20034;-93
2021/08/18 00:56:04;;;;;;;3.60;1.42;;;;;;;15.87;56.25;92550.13;4998698;28;20147;-94
2021/08/18 00:58:49;;;;;;;0.82;0.77;;;;;;;15.85;56.86;92557.63;4999787;28;20533;-92
2021/08/18 01:01:25;;;;;;;0.95;0.88;;;;;;;15.88;57.41;92558.84;4991016;28;20135;-92
2021/08/18 01:04:09;;;;;;;0.20;0.20;;;;;;;15.80;57.61;92561.19;5011820;28;20045;-93
2021/08/18 01:06:42;;;;;;;1.25;0.93;;;;;;;15.81;58.11;92564.63;4998819;28;20082;-92
2021/08/18 01:09:18;;;;;;;1.70;0.75;;;;;;;15.81;58.81;92572.53;5000862;28;20052;-94
2021/08/18 01:12:04;;;;;;;;;;;;;;;;;;;;;
2021/08/18 01:14:53;;;;;;;0.90;0.82;;;;;;;15.65;59.60;92555.63;5014240;28;20052;-93
2021/08/18 01:17:46;;;;;;;1.90;1.05;;;;;;;15.71;60.04;92567.59;4985470;28;20049;-94
2021/08/18 01:20:46;;;;;;;0.73;0.52;;;;;;;15.64;59.94;92559.38;5017392;28;20045;-93
2021/08/18 01:23:40;;;;;;;;;;;;;;;;;;;;;
2021/08/18 01:26:21;;;;;;;1.27;0.90;;;;;;;15.77;53.04;92563.69;4990924;28;20092;-94
2021/08/18 01:29:01;;;;;;;1.05;0.82;;;;;;;15.85;49.07;92557.63;4981689;28;20104;-94
2021/08/18 01:31:42;;;;;;;1.38;0.70;;;;;;;16.03;48.47;92567.03;4974800;28;20095;-93
2021/08/18 01:34:17;;;;;;;2.70;1.17;;;;;;;16.14;48.04;92564.00;4985419;28;20049;-93
2021/08/18 01:36:49;;;;;;;1.42;0.88;;;;;;;16.24;47.27;92566.28;5014346;28;20041;-94
2021/08/18 01:39:27;;;;;;;1.70;1.17;;;;;;;16.32;46.17;92568.09;4994978;28;20038;-93
2021/08/18 01:41:56;;;;;;;1.85;1.00;;;;;;;16.33;45.31;92561.75;4999359;28;20454;-94
2021/08/18 01:44:24;;;;;;;1.52;0.93;;;;;;;16.37;45.26;92561.84;4999135;28;20056;-93
2021/08/18 01:47:03;;;;;;;1.65;1.08;;;;;;;16.43;45.36;92561.34;5009283;28;20049;-94
2021/08/18 01:49:42;;;;;;;2.70;1.20;;;;;;;16.43;45.79;92561.34;5003518;28;20044;-92
2021/08/18 01:52:28;;;;;;;;;;;;;;;;;;;;;
2021/08/18 01:55:04;;;;;;;1.48;0.90;;;;;;;16.31;48.13;92558.63;4983368;28;20050;-93
2021/08/18 02:01:26;;;;;;;4.32;1.52;;;;;;;16.16;48.48;92561.81;5012295;28;20861;-94
2021/08/18 02:04:00;;;;;;;2.55;1.42;;;;;;;16.11;48.55;92554.84;5004008;28;20127;-93
2021/08/18 02:06:32;;;;;;;3.20;1.65;;;;;;;16.11;49.78;92564.66;5011985;28;20069;-93
2021/08/18 02:09:01;;;;;;;1.50;0.90;;;;;;;16.01;50.72;92563.91;5011725;28;20046;-92
2021/08/18 02:11:29;;;;;;;3.13;1.65;;;;;;;15.93;50.89;92558.66;5000472;28;20119;-94
2021/08/18 02:14:00;;;;;;;2.85;1.33;;;;;;;15.87;51.00;92555.41;4984721;28;20057;-95
2021/08/18 02:16:36;;;;;;;;;;;;;;;;;;;;;
2021/08/18 02:19:14;;;;;;;1.92;1.02;;;;;;;15.83;50.32;92562.44;4997017;28;20137;-93
2021/08/18 02:24:29;;;;;;;1.20;0.98;;;;;;;15.86;49.11;92567.09;5003983;28;20055;-95
2021/08/18 02:27:34;;;;;;;;;;;;;;;;;;;;;
2021/08/18 02:30:31;;;;;;;;;;;;;;;;;;;;;
2021/08/18 02:33:09;;;;;;;2.90;1.58;;;;;;;16.14;46.07;92572.69;4990710;28;20137;-94
2021/08/18 02:35:48;;;;;;;2.40;1.23;;;;;;;16.22;46.68;92576.41;4991593;28;20048;-93
2021/08/18 02:38:21;;;;;;;2.95;1.23;;;;;;;16.16;46.49;92567.88;4995780;28;20041;-93
2021/08/18 02:41:07;;;;;;;7.38;1.48;;;;;;;16.21;46.77;92575.63;4996809;28;20683;-94
2021/08/18 02:43:38;;;;;;;2.80;1.25;;;;;;;16.29;45.96;92581.97;4989657;28;20041;-93
2021/08/18 02:46:04;;;;;;;1.85;1.35;;;;;;;16.22;45.95;92571.13;5000842;28;20050;-95
2021/08/18 02:48:43;;;;;;;;;;;;;;;;;;;;;
2021/08/18 02:51:19;;;;;;;1.73;1.10;;;;;;;16.27;45.72;92572.81;5023137;28;20052;-93
2021/08/18 02:53:59;;;;;;;1.45;0.93;;;;;;;16.34;45.11;92575.72;5000942;28;20049;-94
2021/08/18 02:56:37;;;;;;;;;;;;;;;;;;;;;
2021/08/18 02:59:34;;;;;;;1.65;1.08;;;;;;;16.26;46.13;92572.03;5013533;28;20125;-93
2021/08/18 03:02:19;;;;;;;;;;;;;;;;;;;;;
2021/08/18 03:05:17;;;;;;;1.27;0.93;;;;;;;16.23;49.06;92583.22;5023161;28;20129;-93
2021/08/18 03:07:45;;;;;;;1.00;0.68;;;;;;;16.07;49.06;92571.66;4996543;28;20045;-92
2021/08/18 03:10:25;;;;;;;1.13;0.98;;;;;;;15.96;49.43;92564.09;4980765;28;20045;-93
2021/08/18 03:13:07;;;;;;;1.65;1.08;;;;;;;15.92;49.59;92568.47;4997787;28;20038;-94
2021/08/18 03:15:40;;;;;;;4.03;1.60;;;;;;;15.86;50.13;92575.00;4988710;28;20483;-93
2021/08/18 03:18:20;;;;;;;2.40;1.45;;;;;;;15.79;50.92;92580.00;4989647;28;20521;-94
2021/08/18 03:20:59;;;;;;;1.75;0.90;;;;;;;15.75;51.12;92589.63;4964564;28;20046;-94
2021/08/18 03:23:28;;;;;;;3.42;1.80;;;;;;;15.64;51.62;92583.09;4969495;28;20125;-93
2021/08/18 03:26:06;;;;;;;2.33;1.13;;;;;;;15.53;52.19;92580.03;4999391;28;20065;-93
2021/08/18 03:28:40;;;;;;;2.85;1.30;;;;;;;15.44;53.21;92572.13;4979665;28;20130;-92
2021/08/18 03:31:16;;;;;;;1.23;0.82;;;;;;;15.42;53.34;92566.38;5013663;28;20045;-93
2021/08/18 03:34:05;;;;;;;2.47;1.27;;;;;;;15.54;50.05;92584.22;4994162;28;20092;-93
2021/08/18 03:36:39;;;;;;;1.90;1.02;;;;;;;15.48;49.55;92559.88;4991671;28;20403;-93
2021/08/18 03:39:13;;;;;;;1.08;0.85;;;;;;;15.59;49.87;92573.50;4985487;28;20041;-94
2021/08/18 03:41:54;;;;;;;;;;;;;;;;;;;;;
2021/08/18 03:44:41;;;;;;;0.77;0.63;;;;;;;15.56;49.40;92569.63;4982122;28;20054;-93
2021/08/18 03:47:14;;;;;;;1.23;0.95;;;;;;;15.62;49.80;92581.53;5010320;28;20049;-95
2021/08/18 03:49:45;;;;;;;1.92;1.40;;;;;;;15.55;50.04;92572.56;4996792;28;20066;-94
2021/08/18 03:52:17;;;;;;;1.58;0.82;;;;;;;15.50;50.29;92568.25;5000838;28;20562;-93
2021/08/18 03:55:01;;;;;;;;;;;;;;;;;;;;;
2021/08/18 03:57:45;;;;;;;2.67;1.55;;;;;;;15.38;52.34;92581.31;5031121;28;20042;-92
2021/08/18 04:00:28;;;;;;;;;;;;;;;;;;;;;
2021/08/18 04:03:01;;;;;;;1.27;0.98;;;;;;;15.23;53.72;92579.94;5016565;28;20083;-93
2021/08/18 04:05:32;;;;;;;2.38;1.40;;;;;;;15.15;53.95;92584.13;5003014;28;20148;-94
2021/08/18 04:08:07;;;;;;;2.30;1.58;;;;;;;15.09;54.34;92590.63;5002403;28;20040;-93
2021/08/18 04:10:56;;;;;;;0.80;0.63;;;;;;;15.01;54.43;92588.78;5006356;28;20045;-92
2021/08/18 04:13:35;;;;;;;1.95;0.90;;;;;;;14.98;54.66;92599.94;4978283;28;20056;-93
2021/08/18 04:16:10;;;;;;;2.28;1.40;;;;;;;14.99;54.76;92602.28;4989798;28;20053;-92
2021/08/18 04:18:41;;;;;;;1.02;0.88;;;;;;;14.87;54.27;92588.94;5000361;28;20636;-92
2021/08/18 04:21:40;;;;;;;;;;;;;;;;;;;;;
2021/08/18 04:24:35;;;;;;;1.33;0.93;;;;;;;14.86;55.90;92592.66;5016929;28;20519;-93
2021/08/18 04:27:04;;;;;;;3.10;1.30;;;;;;;14.82;55.54;92594.34;4990641;28;20037;-93
2021/08/18 04:29:52;;;;;;;0.93;0.68;;;;;;;14.81;55.46;92610.47;5013550;28;20042;-93
2021/08/18 04:32:43;;;;;;;2.50;1.30;;;;;;;14.76;55.91;92600.84;4986568;28;20049;-93
2021/08/18 04:35:25;;;;;;;1.25;0.88;;;;;;;14.75;56.30;92615.13;4999151;28;20046;-94
2021/08/18 04:38:25;;;;;;;;;;;;;;;;;;;;;
2021/08/18 04:41:20;;;;;;;2.83;1.17;;;;;;;14.60;56.38;92608.44;5014876;28;20045;-92
2021/08/18 04:43:51;;;;;;;3.33;1.88;;;;;;;14.57;56.67;92616.97;4986899;28;20037;-93
2021/08/18 04:46:22;;;;;;;3.78;1.20;;;;;;;14.61;56.53;92612.59;4989699;28;20152;-92
2021/08/18 04:48:50;;;;;;;0.90;0.70;;;;;;;14.62;56.29;92611.53;4988963;28;20506;-93
2021/08/18 04:51:21;;;;;;;1.08;0.85;;;;;;;14.66;56.25;92609.84;4991987;28;20036;-91
2021/08/18 04:53:47;;;;;;;2.17;1.27;;;;;;;14.74;55.18;92616.97;4983268;28;20046;-91
2021/08/18 04:56:23;;;;;;;1.95;1.27;;;;;;;14.82;55.00;92617.31;5001396;28;20038;-91
2021/08/18 04:58:58;;;;;;;2.15;1.48;;;;;;;15.02;55.08;92631.72;4990628;28;20064;-92
2021/08/18 05:01:28;;;;;;;0.50;0.50;;;;;;;15.03;54.92;92628.00;4988492;28;20081;-92
2021/08/18 05:04:07;;;;;;;1.23;0.98;;;;;;;15.04;54.82;92630.34;4997804;28;20037;-93
2021/08/18 05:06:45;;;;;;;0.75;0.70;;;;;;;15.15;54.42;92634.22;5001291;28;20062;-92
2021/08/18 05:09:36;;;;;;;1.38;0.98;;;;;;;15.14;54.53;92624.75;5013329;28;20053;-92
2021/08/18 05:12:07;;;;;;;1.55;1.27;;;;;;;15.24;54.85;92620.25;4990268;28;20038;-93
2021/08/18 05:14:44;;;;;;;1.95;1.50;;;;;;;15.38;54.46;92634.06;5003669;28;20034;-92
2021/08/18 05:17:21;;;;;;;2.90;1.33;;;;;;;15.38;54.19;92620.88;4998437;28;20065;-93
2021/08/18 05:20:06;;;;;;;0.98;0.82;;;;;;;15.46;54.05;92620.06;5005550;28;20394;-92
2021/08/18 05:22:57;;;;;;;1.10;0.65;;;;;;;15.55;54.02;92622.69;5003363;28;20062;-91
2021/08/18 05:25:36;;;;;;;2.08;1.15;;;;;;;15.63;54.38;92616.66;4982853;28;20343;-93
2021/08/18 05:28:14;;;;;;;1.05;0.88;;;;;;;15.70;54.54;92622.22;4994109;28;20042;-92
2021/08/18 05:30:42;;;;;;;2.22;1.30;;;;;;;15.86;54.41;92633.06;4998124;28;20076;-92
2021/08/18 05:33:11;;;;;;;2.38;1.60;;;;;;;15.90;54.54;92627.94;4998738;28;20038;-93
2021/08/18 05:35:56;;;;;;;2.25;1.30;;;;;;;16.00;54.59;92628.34;5017444;28;20046;-93
2021/08/18 05:38:34;;;;;;;1.88;1.45;;;;;;;16.08;54.96;92626.78;4996539;28;20041;-91
2021/08/18 05:41:05;;;;;;;1.45;1.15;;;;;;;16.18;55.23;92631.72;4997823;28;20085;-92
2021/08/18 05:43:48;;;;;;;;;;;;;;;;;;;;;
2021/08/18 05:46:27;;;;;;;2.58;1.33;;;;;;;16.40;57.03;92633.34;4997754;28;20108;-91
2021/08/18 05:48:58;;;;;;;1.38;0.95;;;;;;;16.51;56.98;92635.63;4998720;28;20041;-91
2021/08/18 05:51:39;;;;;;;;;;;;;;;;;;;;;
2021/08/18 05:54:20;;;;;;;1.65;0.88;;;;;;;16.78;55.59;92635.16;5035437;28;20046;-92
2021/08/18 05:56:55;;;;;;;0.75;0.73;;;;;;;16.98;58.64;92646.13;5018025;28;20049;-92
2021/08/18 05:59:33;;;;;;;0.75;0.73;;;;;;;17.04;60.21;92642.97;5001513;28;20057;-90
2021/08/18 06:06:16;;;;;;;1.05;0.80;;;;;;;17.39;59.30;92636.63;4955995;28;20150;-91
2021/08/18 06:25:18;;;;;;;1.58;1.17;;;;;;;26.30;37.10;92653.13;4838943;29;20127;-91
2021/08/18 07:29:58;;;;;;;2.05;0.98;;;;;;;23.61;46.01;92665.25;5032020;28;20136;-91
2021/08/18 07:36:46;;;;;;;1.15;0.80;;;;;;;22.45;47.02;92666.63;4949771;28;20037;-93
2021/08/18 07:39:54;;;;;;;;;;;;;;;;;;;;;
2021/08/18 07:42:48;;;;;;;0.80;0.52;;;;;;;21.79;48.24;92665.78;5002043;28;20146;-93
2021/08/18 07:48:50;;;;;;;6.75;1.27;;;;;;;21.56;50.28;92668.38;4975525;28;20057;-93
2021/08/18 07:52:02;;;;;;;3.03;1.48;;;;;;;21.57;47.18;92667.25;4980240;28;20073;-92
2021/08/18 07:54:50;;;;;;;3.30;1.42;;;;;;;21.66;48.26;92675.81;5012070;28;20029;-91
2021/08/18 07:57:39;;;;;;;;;;;;;;;;;;;;;
2021/08/18 08:00:37;;;;;;;;;;;;;;;;;;;;;
2021/08/18 08:03:20;;;;;;;1.77;1.00;;;;;;;21.60;50.67;92675.31;5015330;28;20040;-93
2021/08/18 08:06:05;;;;;;;0.70;0.63;;;;;;;21.12;51.41;92676.53;4967745;28;20133;-91
2021/08/18 08:08:51;;;;;;;;;;;;;;;;;;;;;
2021/08/18 08:11:57;;;;;;;2.03;1.35;;;;;;;21.72;49.56;92685.06;5014014;28;20048;-91
2021/08/18 08:14:50;;;;;;;2.15;1.25;;;;;;;21.24;45.56;92679.09;4994115;28;20081;-93
2021/08/18 08:17:46;;;;;;;1.95;1.33;;;;;;;21.38;46.35;92683.97;4961667;28;20085;-92
2021/08/18 08:20:45;;;;;;;2.08;1.02;;;;;;;20.82;45.87;92692.22;4982337;28;20083;-92
2021/08/18 08:23:23;;;;;;;;;;;;;;;;;;;;;
2021/08/18 08:26:42;;;;;;;2.85;0.80;;;;;;;21.79;45.68;92695.09;5013608;28;20557;-93
2021/08/18 08:29:38;;;;;;;;;;;;;;;;;;;;;
2021/08/18 08:32:30;;;;;;;3.28;1.67;;;;;;;21.72;44.61;92690.38;4991597;28;20076;-93
2021/08/18 08:35:31;;;;;;;3.97;1.60;;;;;;;22.27;44.52;92700.19;5009166;28;20451;-92
2021/08/18 08:38:10;;;;;;;;;;;;;;;;;;;;;
2021/08/18 08:41:15;;;;;;;1.75;0.98;;;;;;;21.23;43.95;92701.50;5013366;28;20037;-92
2021/08/18 08:44:25;;;;;;;;;;;;;;;;;;;;;
2021/08/18 08:47:20;;;;;;;;;;;;;;;;;;;;;
2021/08/18 08:50:11;;;;;;;;;;;;;;;;;;;;;
2021/08/18 08:56:19;;;;;;;1.75;1.00;;;;;;;21.17;46.84;92694.94;5006358;28;20045;-92
2021/08/18 09:02:54;;;;;;;1.63;1.23;;;;;;;21.46;43.56;92698.22;5025918;28;20053;-91
2021/08/18 09:06:06;;;;;;;;;;;;;;;;;;;;;
2021/08/18 09:08:53;;;;;;;2.28;1.38;;;;;;;22.40;44.72;92706.91;4987243;28;20064;-93
2021/08/18 09:11:50;;;;;;;;;;;;;;;;;;;;;
2021/08/18 09:14:57;;;;;;;;;;;;;;;;;;;;;
2021/08/18 09:17:53;;;;;;;;;;;;;;;;;;;;;
2021/08/18 09:20:53;;;;;;;2.10;1.25;;;;;;;23.01;42.83;92705.25;5016284;28;20040;-93
2021/08/18 09:23:35;;;;;;;2.50;1.15;;;;;;;23.00;44.49;92696.47;5018238;28;20136;-93
2021/08/18 09:26:48;;;;;;;;;;;;;;;;;;;;;
2021/08/18 09:33:24;;;;;;;1.23;0.80;;;;;;;22.42;43.82;92710.75;4993434;28;20467;-93
2021/08/18 09:36:25;;;;;;;3.30;1.50;;;;;;;22.19;43.46;92713.38;5006125;28;20079;-94
2021/08/18 09:39:30;;;;;;;2.22;1.58;;;;;;;22.48;44.54;92705.91;5001189;28;20070;-94
2021/08/18 09:42:31;;;;;;;;;;;;;;;;;;;;;
2021/08/18 09:45:35;;;;;;;;;;;;;;;;;;;;;
2021/08/18 09:48:18;;;;;;;2.67;1.30;;;;;;;22.29;43.68;92693.41;5000327;28;20056;-94
2021/08/18 09:51:26;;;;;;;1.30;0.85;;;;;;;22.17;44.62;92704.94;4982596;28;20140;-93
2021/08/18 09:54:47;;;;;;;1.70;0.95;;;;;;;22.86;43.74;92696.25;4996291;28;20574;-94
2021/08/18 09:57:44;;;;;;;1.55;1.05;;;;;;;22.86;43.33;92691.69;4944368;28;20053;-96
2021/08/18 10:03:37;;;;;;;1.63;0.93;;;;;;;22.99;42.30;92692.28;5005715;28;20052;-95
2021/08/18 10:06:36;;;;;;;;;;;;;;;;;;;;;
2021/08/18 10:10:20;;;;;;;;;;;;;;;;;;;;;
2021/08/18 10:16:57;;;;;;;;;;;;;;;;;;;;;
2021/08/18 10:20:15;;;;;;;3.53;1.45;;;;;;;23.67;42.75;92695.88;4985784;28;20050;-95
2021/08/18 10:37:04;;;;;;;;;;;;;;;;;;;;;
2021/08/18 10:40:28;;;;;;;3.60;1.50;;;;;;;22.87;43.04;92692.44;5001700;28;20052;-94
2021/08/18 10:44:00;;;;;;;;;;;;;;;;;;;;;
2021/08/18 10:47:30;;;;;;;1.95;1.27;;;;;;;22.93;45.76;92680.34;5015190;28;20172;-93
2021/08/18 10:50:26;;;;;;;2.72;1.45;;;;;;;22.43;46.62;92687.53;4946603;28;20155;-91
2021/08/18 10:53:32;;;;;;;;;;;;;;;;;;;;;
2021/08/18 10:59:50;;;;;;;;;;;;;;;;;;;;;
2021/08/18 11:06:59;;;;;;;;;;;;;;;;;;;;;
2021/08/18 11:10:26;;;;;;;;;;;;;;;;;;;;;
2021/08/18 11:25:17;;;;;;;;;;;;;;;;;;;;;
2021/08/18 11:32:59;;;;;;;;;;;;;;;;;;;;;
2021/08/18 11:39:51;;;;;;;0.25;0.25;;;;;;;22.87;44.75;92660.41;4846503;29;20053;-93
2021/08/18 12:26:34;;;;;;;;;;;;;;;;;;;;;
2021/08/18 13:04:57;;;;;;;;;;;;;;;23.57;48.05;92647.66;4841143;23;20044;-82
2021/08/18 13:07:23;;;;;;;1.38;0.73;;;;;;;23.42;48.00;92650.16;4990541;28;19988;-79
2021/08/18 13:09:49;;;;;;;1.77;1.15;;;;;;;23.48;46.78;92640.69;5019227;28;20534;-80
2021/08/18 13:12:17;;;;;;;1.25;0.90;;;;;;;23.74;47.00;92647.09;4982566;28;20467;-80
2021/08/18 13:14:43;;;;;;;3.50;1.42;;;;;;;23.72;46.99;92644.03;5000731;28;20180;-79
2021/08/18 13:17:09;;;;;;;2.22;1.02;;;;;;;23.80;47.51;92645.69;4968346;28;20504;-81
2021/08/18 13:19:34;;;;;;;1.15;0.93;;;;;;;23.64;47.28;92643.19;4985377;28;20046;-81
2021/08/18 13:22:00;;;;;;;2.30;1.30;;;;;;;23.83;47.12;92644.19;4995475;28;20042;-81
2021/08/18 13:24:26;;;;;;;2.38;0.93;;;;;;;23.74;46.76;92641.00;5001794;28;20041;-82
2021/08/18 13:26:53;;;;;;;0.95;0.60;;;;;;;23.51;47.44;92639.19;4992882;28;20043;-81
2021/08/18 13:29:19;;;;;;;1.38;0.90;;;;;;;23.56;47.47;92643.47;4990206;28;20046;-81
2021/08/18 13:31:45;;;;;;;2.47;1.25;;;;;;;23.90;46.06;92645.00;5002531;28;20077;-80
2021/08/18 13:34:10;;;;;;;1.45;1.02;;;;;;;24.07;46.05;92640.22;4986478;28;20034;-78
2021/08/18 13:36:37;;;;;;;2.35;1.35;;;;;;;24.46;46.02;92631.81;4986499;28;20050;-79
2021/08/18 13:39:03;;;;;;;2.13;0.95;;;;;;;23.79;46.23;92638.78;4984327;28;20042;-80
2021/08/18 13:41:29;;;;;;;1.80;1.15;;;;;;;23.86;46.56;92632.75;4963220;28;20042;-81
2021/08/18 13:43:56;;;;;;;1.17;0.90;;;;;;;23.88;46.60;92633.16;4966613;28;20115;-79
2021/08/18 13:46:24;;;;;;;0.50;0.47;;;;;;;23.69;46.94;92639.41;4989393;28;20041;-81
2021/08/18 13:48:50;;;;;;;1.63;0.98;;;;;;;23.35;46.66;92633.25;4989558;28;20057;-79
2021/08/18 13:51:16;;;;;;;1.20;0.70;;;;;;;23.79;46.78;92627.34;5004182;28;20408;-80
2021/08/18 13:53:41;;;;;;;0.50;0.50;;;;;;;23.13;47.46;92624.22;4986432;28;20059;-80
2021/08/18 13:56:07;;;;;;;0.73;0.57;;;;;;;23.04;48.68;92629.81;5002396;28;20046;-79
2021/08/18 13:58:33;;;;;;;1.17;0.65;;;;;;;23.62;47.92;92631.28;5001775;28;20046;-78
2021/08/18 14:00:59;;;;;;;0.95;0.80;;;;;;;23.77;47.03;92627.69;4984596;28;20484;-80
2021/08/18 14:03:25;;;;;;;2.53;1.08;;;;;;;23.45;47.22;92625.38;4998422;28;20077;-82
2021/08/18 14:05:52;;;;;;;3.13;1.20;;;;;;;23.12;47.90;92628.75;4985392;28;20058;-82
2021/08/18 14:08:17;;;;;;;1.90;0.57;;;;;;;23.16;48.55;92626.16;4974974;28;20504;-81
2021/08/18 14:10:44;;;;;;;1.75;0.98;;;;;;;23.38;48.07;92630.63;4946441;28;20046;-79
2021/08/18 14:13:11;;;;;;;2.63;1.42;;;;;;;23.00;46.66;92627.09;4965289;28;20100;-79
2021/08/18 14:15:38;;;;;;;3.78;1.38;;;;;;;23.70;46.93;92619.56;4958044;28;20038;-79
2021/08/18 14:18:04;;;;;;;1.60;0.93;;;;;;;23.62;45.82;92616.06;4966574;28;20098;-79
2021/08/18 14:20:30;;;;;;;2.80;1.13;;;;;;;23.27;47.14;92613.72;4983600;28;20071;-78
2021/08/18 14:22:56;;;;;;;0.82;0.77;;;;;;;22.68;47.79;92612.50;4966457;28;20043;-80
2021/08/18 14:25:22;;;;;;;1.75;0.98;;;;;;;22.80;48.87;92612.28;4983422;28;20492;-79
2021/08/18 14:27:48;;;;;;;2.53;1.00;;;;;;;23.47;48.73;92617.78;4965864;28;20070;-80
2021/08/18 14:30:14;;;;;;;0.88;0.82;;;;;;;23.25;48.12;92611.41;4982734;28;20074;-79
2021/08/18 14:32:41;;;;;;;2.65;1.30;;;;;;;23.25;48.40;92608.72;4966117;28;20082;-80
2021/08/18 14:35:08;;;;;;;0.98;0.85;;;;;;;23.26;47.73;92606.84;4981926;28;20053;-80
2021/08/18 14:37:34;;;;;;;1.77;0.98;;;;;;;23.36;46.80;92611.53;4974519;28;20035;-79
2021/08/18 14:40:00;;;;;;;1.13;0.82;;;;;;;22.87;48.14;92609.69;4979197;28;20061;-77
2021/08/18 14:42:26;;;;;;;2.42;1.10;;;;;;;23.31;48.48;92603.84;4982842;28;20038;-80
2021/08/18 14:44:52;;;;;;;2.35;1.20;;;;;;;23.29;49.03;92608.78;4966123;28;20086;-76
2021/08/18 14:47:17;;;;;;;1.55;0.95;;;;;;;23.21;48.48;92604.47;4965030;28;20046;-76
2021/08/18 14:49:43;;;;;;;1.75;1.17;;;;;;;23.19;48.85;92606.72;4982377;28;20233;-79
2021/08/18 14:52:09;;;;;;;1.95;1.02;;;;;;;23.23;49.77;92618.22;4947821;28;20405;-78
2021/08/18 14:54:34;;;;;;;2.08;1.17;;;;;;;23.54;48.00;92614.41;4981285;28;20050;-81
2021/08/18 14:57:00;;;;;;;1.20;0.88;;;;;;;23.15;48.98;92605.94;4961239;29;20070;-81
2021/08/18 14:59:26;;;;;;;2.33;1.17;;;;;;;23.20;48.17;92608.28;4953873;28;20057;-79
2021/08/18 15:01:52;;;;;;;2.20;1.42;;;;;;;22.73;49.99;92606.84;4953458;29;20035;-78
2021/08/18 15:04:18;;;;;;;1.83;1.00;;;;;;;22.60;50.21;92612.34;4957770;28;20050;-81
2021/08/18 15:06:44;;;;;;;1.77;1.00;;;;;;;22.80;48.65;92607.69;4970642;28;20070;-79
2021/08/18 15:09:10;;;;;;;1.33;1.08;;;;;;;22.95;49.41;92600.69;4970203;28;20065;-81
2021/08/18 15:11:35;;;;;;;3.65;1.35;;;;;;;22.76;50.23;92606.13;4972096;28;20525;-79
2021/08/18 15:14:01;;;;;;;0.90;0.77;;;;;;;22.87;49.25;92605.13;4973057;28;20051;-78
2021/08/18 15:16:27;;;;;;;0.88;0.70;;;;;;;23.11;48.30;92599.78;4967984;28;20038;-78
2021/08/18 15:18:52;;;;;;;0.68;0.68;;;;;;;22.71;49.79;92603.75;4992979;28;20062;-79
2021/08/18 15:21:18;;;;;;;2.17;1.13;;;;;;;22.30;50.54;92601.59;4940225;28;20042;-78
2021/08/18 15:23:44;;;;;;;0.90;0.77;;;;;;;22.08;51.60;92599.69;4976848;28;20109;-79
2021/08/18 15:26:10;;;;;;;0.85;0.60;;;;;;;21.97;50.75;92599.50;4979199;28;20338;-79
2021/08/18 15:28:36;;;;;;;1.35;0.95;;;;;;;21.98;51.05;92601.03;4958543;28;20042;-80
2021/08/18 15:31:02;;;;;;;1.48;1.05;;;;;;;22.43;50.08;92596.88;4990230;28;20081;-79
2021/08/18 15:33:28;;;;;;;1.20;0.80;;;;;;;22.81;49.55;92595.16;4978800;28;20047;-78
2021/08/18 15:35:54;;;;;;;1.17;0.85;;;;;;;22.80;49.94;92605.03;4980189;28;20053;-79
2021/08/18 15:38:20;;;;;;;0.82;0.63;;;;;;;22.64;49.28;92597.19;4979593;28;20035;-79
2021/08/18 15:40:46;;;;;;;1.27;0.98;;;;;;;22.31;50.54;92600.47;4961554;28;20077;-78
2021/08/18 15:43:12;;;;;;;1.85;1.00;;;;;;;22.05;50.26;92593.16;4967053;28;20066;-79
2021/08/18 15:45:38;;;;;;;3.60;0.75;;;;;;;21.96;51.22;92598.72;4973823;28;20067;-79
2021/08/18 15:48:06;;;;;;;0.55;0.55;;;;;;;22.32;50.33;92599.34;4970450;28;20066;-79
2021/08/18 15:50:33;;;;;;;0.52;0.52;;;;;;;22.39;49.21;92604.81;4976357;28;20047;-80
2021/08/18 15:52:59;;;;;;;1.63;0.85;;;;;;;22.58;48.64;92597.84;4983999;28;20042;-78
2021/08/18 15:55:25;;;;;;;1.55;0.75;;;;;;;22.70;48.96;92594.19;4984452;28;20019;-81
2021/08/18 15:57:53;;;;;;;1.20;0.57;;;;;;;22.47;49.23;92592.34;4975537;28;20027;-79
2021/08/18 16:00:19;;;;;;;0.52;0.47;;;;;;;22.75;48.79;92591.25;4951193;28;20151;-79
2021/08/18 16:02:45;;;;;;;2.17;1.08;;;;;;;22.71;49.09;92595.75;4983252;28;20039;-79
2021/08/18 16:05:11;;;;;;;1.23;0.77;;;;;;;22.84;48.81;92591.75;4953117;28;20058;-79
2021/08/18 16:07:37;;;;;;;2.80;1.40;;;;;;;22.85;48.67;92585.28;4999579;28;20062;-80
2021/08/18 16:10:05;;;;;;;0.60;0.60;;;;;;;22.80;48.40;92582.91;4978746;28;20117;-75
2021/08/18 16:12:31;;;;;;;1.50;0.98;;;;;;;22.81;48.60;92576.47;4977442;28;20043;-75
2021/08/18 16:14:56;;;;;;;2.15;0.80;;;;;;;22.52;48.87;92578.72;4970655;28;20053;-75
2021/08/18 16:17:26;;;;;;;0.93;0.85;;;;;;;22.69;48.47;92584.66;4974147;28;20133;-76
2021/08/18 16:19:52;;;;;;;1.30;0.90;;;;;;;22.86;47.93;92576.91;4994632;28;20039;-77
2021/08/18 16:22:18;;;;;;;2.92;1.13;;;;;;;22.82;48.27;92586.00;4994017;28;20050;-75
2021/08/18 16:24:44;;;;;;;1.67;1.23;;;;;;;22.36;49.50;92567.41;4970150;28;20042;-77
2021/08/18 16:27:09;;;;;;;0.68;0.68;;;;;;;22.54;49.61;92579.13;4969235;28;20516;-76
2021/08/18 16:29:35;;;;;;;1.02;0.73;;;;;;;22.42;49.14;92569.41;4953821;28;20563;-77
2021/08/18 16:32:01;;;;;;;8.90;1.45;;;;;;;22.40;48.58;92578.91;4965218;28;20042;-76
2021/08/18 16:34:26;;;;;;;0.90;0.75;;;;;;;22.31;49.58;92567.72;4965973;28;20084;-77
2021/08/18 16:36:52;;;;;;;0.88;0.57;;;;;;;22.12;50.00;92569.28;4993276;28;20117;-78
2021/08/18 16:39:18;;;;;;;0.82;0.77;;;;;;;22.36;49.41;92575.41;4971647;28;20058;-77
2021/08/18 16:41:44;;;;;;;0.52;0.50;;;;;;;22.01;49.83;92566.44;4990777;28;20046;-76
2021/08/18 16:44:10;;;;;;;1.20;0.93;;;;;;;21.92;50.39;92560.59;4992945;28;20038;-76
2021/08/18 16:46:37;;;;;;;2.38;0.77;;;;;;;22.08;50.05;92565.78;4989067;28;20420;-77
2021/08/18 16:49:06;;;;;;;2.35;1.50;;;;;;;22.13;50.21;92557.50;4974621;28;20168;-75
2021/08/18 16:51:32;;;;;;;0.85;0.70;;;;;;;22.35;49.81;92560.53;4993870;28;20038;-77
2021/08/18 16:53:58;;;;;;;1.00;0.77;;;;;;;22.43;51.70;92559.53;4991308;28;20104;-76
2021/08/18 16:56:23;;;;;;;1.38;0.85;;;;;;;22.32;52.17;92556.69;4969054;28;20115;-77
2021/08/18 16:58:49;;;;;;;0.73;0.65;;;;;;;22.09;51.11;92554.03;4986111;28;20255;-76
2021/08/18 17:01:15;;;;;;;2.05;0.77;;;;;;;22.47;51.01;92546.22;4974293;28;20054;-76
2021/08/18 17:04:00;;;;;;;1.45;0.90;;;;;;;22.37;51.07;92556.38;4993709;28;20089;-76
2021/08/18 17:06:26;;;;;;;0.85;0.70;;;;;;;22.65;50.42;92552.59;4972383;28;20412;-77
2021/08/18 17:08:52;;;;;;;1.45;0.77;;;;;;;22.79;50.21;92552.03;4991003;28;20054;-77
2021/08/18 17:11:18;;;;;;;1.75;1.17;;;;;;;22.83;49.95;92558.19;4959327;28;20057;-76
2021/08/18 17:13:43;;;;;;;1.25;1.00;;;;;;;22.72;52.55;92554.59;4973416;28;20266;-76
2021/08/18 17:16:09;;;;;;;2.45;1.13;;;;;;;22.61;50.32;92557.88;4989489;28;20463;-76
2021/08/18 17:18:38;;;;;;;1.30;0.98;;;;;;;22.65;51.55;92564.06;4982874;28;20070;-76
2021/08/18 17:21:05;;;;;;;1.80;0.98;;;;;;;22.60;51.06;92560.91;4959289;28;20085;-76
2021/08/18 17:23:33;;;;;;;1.35;0.88;;;;;;;22.58;51.22;92569.25;4973475;28;20058;-76
2021/08/18 17:26:02;;;;;;;1.23;0.77;;;;;;;22.52;51.53;92570.72;4975248;28;20431;-76
2021/08/18 17:28:30;;;;;;;2.60;1.48;;;;;;;22.35;51.97;92571.19;4975436;28;20070;-76
2021/08/18 17:30:56;;;;;;;3.67;0.90;;;;;;;22.26;52.57;92570.69;4975098;28;20496;-77